Pagrindinis puslapis
METAR-TAF:

METAR-TAF

Oro uostai :

Viktorija, Mahė, Seišeliai

platuma: 04-40S, ilguma: 055-31E, Aukštis: 3 m

Dabartinis oras

Ataskaita buvo paskelbta 37 minutes, ne 20:00 UTC
Vėjas 5 kt nuo kintamojo kryptimis
Temperatūra 27°C
Drėgmė 84%
Slėgis 1010 hPa
Matomumas 10 km arba daugiau
Išsisklaidę debesys ne aukštis 1800 ft
lietus

METAR: FSIA 152000Z VRB05KT 9999 -SHRA SCT018 27/24 Q1010 NOSIG

Laikas: 00:37 (20:37 UTC)

Prognozė

Ataskaita buvo paskelbta 3 valandos ir 30 minutes, ne 17:07 UTC
Prognozė galioja nuo 15 metu 18 UTC su 16 metu 18 UTC
Vėjas 5 kt iš Vakarų/Šiaurės Vakarų
Matomumas 10 km arba daugiau
Mažai debesys ne aukštis 1800 ft
Tikimybė 40% :
Laikinai
nuo 16 metu 01 UTC su 16 metu 03 UTC
Su prošvaistėmis ne aukštis 1800 ft
lietus
Tapsmas
nuo 16 metu 02 UTC su 16 metu 04 UTC
Vėjas 10 kt iš Vakarų/Šiaurės Vakarų
Išsisklaidę debesys ne aukštis 1800 ft

TAF: FSIA 151707Z 1518/1618 30005KT 9999 FEW018 PROB40 TEMPO 1601/1603 -SHRA BKN018 BECMG 1602/1604 30010KT SCT018

Orai ataskaitas ir orų prognozės (METAR, TAF).

turimą stotys yra geltonos ir raudonos taškus žemėlapyje.

Perkelti pele per norėdami pamatyti stoties vardą.

Tada spustelėkite, norėdami matyti oro stebėjimo ir prognozės.

Norėdami pakeisti žemėlapį: spustelėkite ant žalios mygtukų su juodo kryžiaus žemyn,; žalią mygtuką su brūkšneliu, jei norite nutolinti; arba žalių rodyklių gretimoms žemėlapius.


METAR-TAF: